Time;durP1;ratioP1;P1;durP2;ratioP2;P2;SDS_P1;SDS_P2;PMS_P1;PMS_P2;Temp;Humidity;BMP_temperature;BMP_pressure;BME280_temperature;BME280_humidity;BME280_pressure;Samples;Min_cycle;Max_cycle;Signal;HPM_P1;HPM_P2
2021/03/15 00:00:06;;;;;;;13.32;4.07;;;4.60;99.90;;;;;;5050116;28;20028;-45
2021/03/15 00:02:31;;;;;;;15.82;4.15;;;4.50;99.90;;;;;;5049551;28;20061;-45
2021/03/15 00:04:57;;;;;;;10.35;4.15;;;4.50;99.90;;;;;;5048745;28;20544;-45
2021/03/15 00:07:22;;;;;;;12.77;4.40;;;4.50;99.90;;;;;;5047472;28;20060;-45
2021/03/15 00:09:47;;;;;;;13.90;3.83;;;4.40;99.90;;;;;;5049558;28;20094;-44
2021/03/15 00:12:13;;;;;;;15.30;5.15;;;4.40;99.90;;;;;;5049325;28;20021;-46
2021/03/15 00:14:39;;;;;;;9.25;3.72;;;4.30;99.90;;;;;;5049730;28;20367;-45
2021/03/15 00:17:05;;;;;;;10.43;4.82;;;4.30;99.90;;;;;;5049032;28;20032;-45
2021/03/15 00:19:30;;;;;;;11.68;4.20;;;4.30;99.90;;;;;;5049090;28;20029;-46
2021/03/15 00:21:56;;;;;;;19.38;5.85;;;4.30;99.90;;;;;;5049272;28;20470;-46
2021/03/15 00:24:21;;;;;;;22.67;7.15;;;4.30;99.90;;;;;;5048741;28;20208;-47
2021/03/15 00:26:46;;;;;;;13.90;5.65;;;4.20;99.90;;;;;;5048157;28;20120;-48
2021/03/15 00:29:12;;;;;;;11.38;4.68;;;4.20;99.90;;;;;;5049773;28;20060;-45
2021/03/15 00:31:37;;;;;;;10.18;4.82;;;4.20;99.90;;;;;;5049416;28;20110;-46
2021/03/15 00:34:03;;;;;;;15.43;5.30;;;4.20;99.90;;;;;;5049217;28;20025;-46
2021/03/15 00:36:28;;;;;;;13.05;5.22;;;4.20;99.90;;;;;;5048882;28;20498;-47
2021/03/15 00:38:54;;;;;;;9.77;5.50;;;4.20;99.90;;;;;;5054140;28;20025;-45
2021/03/15 00:41:19;;;;;;;12.77;5.72;;;4.20;99.90;;;;;;5056244;28;20029;-48
2021/03/15 00:43:45;;;;;;;17.90;5.53;;;4.20;99.90;;;;;;5046698;28;20210;-46
2021/03/15 00:46:10;;;;;;;27.48;6.35;;;4.20;99.90;;;;;;5047765;28;20041;-45
2021/03/15 00:48:36;;;;;;;13.02;5.38;;;4.20;99.90;;;;;;5048138;28;20119;-46
2021/03/15 00:51:01;;;;;;;15.70;5.53;;;4.30;99.90;;;;;;5047836;28;20032;-45
2021/03/15 00:53:27;;;;;;;14.05;5.80;;;4.30;99.90;;;;;;5049065;28;20335;-45
2021/03/15 00:55:52;;;;;;;24.73;7.22;;;4.40;99.90;;;;;;5048102;28;20029;-46
2021/03/15 00:58:18;;;;;;;18.83;6.13;;;4.40;99.90;;;;;;5047037;28;20033;-45
2021/03/15 01:00:47;;;;;;;21.17;6.15;;;4.40;99.90;;;;;;5048876;28;20438;-45
2021/03/15 01:03:13;;;;;;;15.10;6.07;;;4.40;99.90;;;;;;5045860;28;20023;-45
2021/03/15 01:05:41;;;;;;;16.40;6.72;;;4.40;99.90;;;;;;5050498;28;20256;-45
2021/03/15 01:08:08;;;;;;;20.23;6.18;;;4.40;99.90;;;;;;5047179;28;20090;-48
2021/03/15 01:10:36;;;;;;;17.92;6.85;;;4.40;99.90;;;;;;5048528;28;20032;-46
2021/03/15 01:13:03;;;;;;;16.17;6.50;;;4.40;99.90;;;;;;5048065;28;20104;-46
2021/03/15 01:15:29;;;;;;;13.52;6.82;;;4.40;99.90;;;;;;5047903;28;20025;-46
2021/03/15 01:17:57;;;;;;;17.27;6.30;;;4.50;99.90;;;;;;5048374;28;20076;-47
2021/03/15 01:20:23;;;;;;;28.23;7.18;;;4.40;99.90;;;;;;5048030;28;20033;-45
2021/03/15 01:22:48;;;;;;;13.73;6.15;;;4.40;99.90;;;;;;5048898;28;20510;-45
2021/03/15 01:25:15;;;;;;;20.88;6.47;;;4.40;99.90;;;;;;5048001;28;20036;-46
2021/03/15 01:27:40;;;;;;;21.45;6.40;;;4.40;99.90;;;;;;5047297;28;20025;-45
2021/03/15 01:30:12;;;;;;;19.02;7.25;;;4.30;99.90;;;;;;5048113;28;20032;-45
2021/03/15 01:32:38;;;;;;;18.92;6.97;;;4.30;99.90;;;;;;5048250;28;20445;-45
2021/03/15 01:35:05;;;;;;;22.77;6.88;;;4.30;99.90;;;;;;5045217;28;20035;-46
2021/03/15 01:37:31;;;;;;;17.23;8.40;;;4.30;99.90;;;;;;5048273;28;20398;-46
2021/03/15 01:39:56;;;;;;;14.07;6.78;;;4.30;99.90;;;;;;5050345;28;20025;-45
2021/03/15 01:42:22;;;;;;;19.48;7.07;;;4.30;99.90;;;;;;5064077;28;20111;-48
2021/03/15 01:44:47;;;;;;;14.85;7.07;;;4.30;99.90;;;;;;5067304;28;20039;-45
2021/03/15 01:47:13;;;;;;;19.85;7.63;;;4.20;99.90;;;;;;5046368;28;20036;-45
2021/03/15 01:49:39;;;;;;;22.50;7.15;;;4.30;99.90;;;;;;5047918;28;20029;-45
2021/03/15 01:52:05;;;;;;;34.03;6.97;;;4.30;99.90;;;;;;5047055;28;20021;-46
2021/03/15 01:54:30;;;;;;;17.85;7.00;;;4.40;99.90;;;;;;5047573;28;20009;-47
2021/03/15 01:56:56;;;;;;;21.75;6.97;;;4.40;99.90;;;;;;5046876;28;20025;-48
2021/03/15 01:59:22;;;;;;;20.58;6.57;;;4.30;99.90;;;;;;5048344;28;20115;-46
2021/03/15 02:01:48;;;;;;;14.65;6.60;;;4.40;99.90;;;;;;5047178;28;20029;-46
2021/03/15 02:04:14;;;;;;;15.70;6.72;;;4.40;99.90;;;;;;5046483;28;20082;-46
2021/03/15 02:06:41;;;;;;;19.63;6.45;;;4.40;99.90;;;;;;5046374;28;20068;-46
2021/03/15 02:09:06;;;;;;;14.73;6.40;;;4.50;99.90;;;;;;5047214;28;20032;-45
2021/03/15 02:11:35;;;;;;;21.42;6.32;;;4.50;99.90;;;;;;5047454;28;20029;-45
2021/03/15 02:14:05;;;;;;;23.27;7.07;;;4.50;99.90;;;;;;5047036;28;20029;-47
2021/03/15 02:16:46;;;;;;;25.60;7.55;;;4.60;99.90;;;;;;5046720;28;20131;-46
2021/03/15 02:19:33;;;;;;;27.70;7.82;;;4.60;99.90;;;;;;5046896;28;20066;-46
2021/03/15 02:22:30;;;;;;;18.50;6.65;;;4.60;99.90;;;;;;5047271;28;20570;-46
2021/03/15 02:25:33;;;;;;;16.17;6.82;;;4.60;99.90;;;;;;5045570;28;20040;-46
2021/03/15 02:28:07;;;;;;;20.92;7.30;;;4.60;99.90;;;;;;5046923;28;20091;-46
2021/03/15 02:30:54;;;;;;;20.13;7.15;;;4.60;99.90;;;;;;5046484;28;20064;-46
2021/03/15 02:33:37;;;;;;;17.20;6.50;;;4.60;99.90;;;;;;5046883;28;20060;-47
2021/03/15 02:36:05;;;;;;;15.43;6.97;;;4.60;99.90;;;;;;5046269;28;20067;-45
2021/03/15 02:38:35;;;;;;;17.42;5.72;;;4.50;99.90;;;;;;5046375;28;20055;-47
2021/03/15 02:41:03;;;;;;;13.95;6.40;;;4.50;99.90;;;;;;5048923;28;20099;-45
2021/03/15 02:43:47;;;;;;;15.05;6.75;;;4.50;99.90;;;;;;5059387;28;20123;-48
2021/03/15 02:46:21;;;;;;;19.25;6.13;;;4.40;99.90;;;;;;5045480;28;20056;-46
2021/03/15 02:48:49;;;;;;;13.85;6.07;;;4.40;99.90;;;;;;5044462;28;20093;-46
2021/03/15 02:51:18;;;;;;;21.95;6.50;;;4.40;99.90;;;;;;5046421;28;20024;-46
2021/03/15 02:53:45;;;;;;;17.90;7.00;;;4.40;99.90;;;;;;5046930;28;20393;-46
2021/03/15 02:56:19;;;;;;;14.82;6.97;;;4.40;99.90;;;;;;5046170;28;20029;-46
2021/03/15 02:58:46;;;;;;;16.45;6.75;;;4.40;99.90;;;;;;5046239;28;20470;-46
2021/03/15 03:01:17;;;;;;;14.90;6.13;;;4.40;99.90;;;;;;5045824;28;20116;-46
2021/03/15 03:03:43;;;;;;;13.15;5.53;;;4.40;99.90;;;;;;5046496;28;20738;-45
2021/03/15 03:06:10;;;;;;;13.82;6.03;;;4.30;99.90;;;;;;5045464;28;20119;-45
2021/03/15 03:08:37;;;;;;;13.65;6.22;;;4.30;99.90;;;;;;5047546;28;20024;-45
2021/03/15 03:11:04;;;;;;;13.93;5.57;;;4.30;99.90;;;;;;5046436;28;20467;-47
2021/03/15 03:13:32;;;;;;;13.75;5.88;;;4.40;99.90;;;;;;5047259;28;20135;-46
2021/03/15 03:15:58;;;;;;;13.20;5.75;;;4.40;99.90;;;;;;5046361;28;20513;-46
2021/03/15 03:18:25;;;;;;;14.30;5.63;;;4.40;99.90;;;;;;5046813;28;20443;-47
2021/03/15 03:20:54;;;;;;;9.93;5.10;;;4.40;99.90;;;;;;5046789;28;20024;-47
2021/03/15 03:23:21;;;;;;;11.00;5.93;;;4.40;99.90;;;;;;5046075;28;20171;-47
2021/03/15 03:25:48;;;;;;;12.00;5.53;;;4.40;99.90;;;;;;5047355;28;20544;-45
2021/03/15 03:28:16;;;;;;;12.60;4.95;;;4.40;99.90;;;;;;5048239;28;20556;-45
2021/03/15 03:30:43;;;;;;;9.80;5.32;;;4.40;99.90;;;;;;5049649;28;20044;-47
2021/03/15 03:33:10;;;;;;;9.38;5.18;;;4.40;99.90;;;;;;5049992;28;20104;-46
2021/03/15 03:35:36;;;;;;;8.82;4.30;;;4.40;99.90;;;;;;5048281;28;20115;-46
2021/03/15 03:38:02;;;;;;;8.23;5.13;;;4.40;99.90;;;;;;5049670;28;20104;-46
2021/03/15 03:40:30;;;;;;;10.63;5.30;;;4.40;99.90;;;;;;5049571;28;20532;-45
2021/03/15 03:42:55;;;;;;;11.45;5.57;;;4.40;99.90;;;;;;5054625;28;20044;-46
2021/03/15 03:45:22;;;;;;;10.55;5.15;;;4.40;99.90;;;;;;5051113;28;20343;-46
2021/03/15 03:47:48;;;;;;;9.43;4.93;;;4.40;99.90;;;;;;5049680;28;20028;-46
2021/03/15 03:50:16;;;;;;;8.98;4.88;;;4.40;99.90;;;;;;5049147;28;20417;-46
2021/03/15 03:52:52;;;;;;;8.05;5.10;;;4.40;99.90;;;;;;5050181;28;20027;-46
2021/03/15 03:55:21;;;;;;;9.20;4.90;;;4.40;99.90;;;;;;5050020;28;20053;-45
2021/03/15 03:57:50;;;;;;;5.50;4.45;;;4.40;99.90;;;;;;5048141;28;20064;-46
2021/03/15 04:00:17;;;;;;;8.73;5.65;;;4.30;99.90;;;;;;5049955;28;20091;-46
2021/03/15 04:02:50;;;;;;;4.28;3.65;;;4.30;99.90;;;;;;5049545;28;20025;-46
2021/03/15 04:05:22;;;;;;;8.98;4.25;;;4.30;99.90;;;;;;5047351;28;20021;-45
2021/03/15 04:07:52;;;;;;;10.85;4.30;;;4.40;99.90;;;;;;5049323;28;20025;-46
2021/03/15 04:10:18;;;;;;;5.13;3.60;;;4.30;99.90;;;;;;5049076;28;20025;-45
2021/03/15 04:12:52;;;;;;;7.40;3.83;;;4.30;99.90;;;;;;5049937;28;20043;-47
2021/03/15 04:15:19;;;;;;;5.70;3.33;;;4.30;99.90;;;;;;5048932;28;20025;-46
2021/03/15 04:17:47;;;;;;;5.55;3.88;;;4.30;99.90;;;;;;5050108;28;20104;-46
2021/03/15 04:20:18;;;;;;;5.22;3.65;;;4.30;99.90;;;;;;5048916;28;20032;-46
2021/03/15 04:22:51;;;;;;;4.90;3.63;;;4.30;99.90;;;;;;5049925;28;20491;-45
2021/03/15 04:25:20;;;;;;;7.25;4.35;;;4.30;99.90;;;;;;5048698;28;20263;-46
2021/03/15 04:27:50;;;;;;;10.90;4.68;;;4.20;99.90;;;;;;5048601;28;20426;-46
2021/03/15 04:30:18;;;;;;;5.07;4.00;;;4.20;99.90;;;;;;5058539;28;20074;-46
2021/03/15 04:32:47;;;;;;;5.75;4.35;;;4.20;99.90;;;;;;5055438;28;20089;-47
2021/03/15 04:35:13;;;;;;;6.43;4.35;;;4.20;99.90;;;;;;5054963;28;20020;-45
2021/03/15 04:37:39;;;;;;;7.55;5.20;;;4.20;99.90;;;;;;5058602;28;20033;-45
2021/03/15 04:40:06;;;;;;;6.35;4.63;;;4.20;99.90;;;;;;5055934;28;20383;-47
2021/03/15 04:42:33;;;;;;;5.65;4.50;;;4.20;99.90;;;;;;5058696;28;20039;-46
2021/03/15 04:44:59;;;;;;;6.55;4.82;;;4.20;99.90;;;;;;5055428;28;20040;-46
2021/03/15 04:47:26;;;;;;;7.47;5.30;;;4.20;99.90;;;;;;5058921;28;20031;-45
2021/03/15 04:49:52;;;;;;;9.40;5.85;;;4.10;99.90;;;;;;5054752;28;20032;-45
2021/03/15 04:52:19;;;;;;;7.60;5.30;;;4.10;99.90;;;;;;5054017;28;20025;-46
2021/03/15 04:54:45;;;;;;;8.32;5.72;;;4.10;99.90;;;;;;5050272;28;20040;-45
2021/03/15 04:57:14;;;;;;;8.02;5.75;;;4.10;99.90;;;;;;5048401;28;20029;-46
2021/03/15 04:59:40;;;;;;;7.85;5.70;;;4.10;99.90;;;;;;5049923;28;20031;-45
2021/03/15 05:02:07;;;;;;;10.60;6.78;;;4.10;99.90;;;;;;5055247;28;20111;-46
2021/03/15 05:04:35;;;;;;;7.88;5.65;;;4.10;99.90;;;;;;5068200;28;20028;-45
2021/03/15 05:07:02;;;;;;;8.38;6.10;;;4.00;99.90;;;;;;5052929;28;20029;-45
2021/03/15 05:09:28;;;;;;;7.68;5.10;;;4.00;99.90;;;;;;5048153;28;20087;-45
2021/03/15 05:11:54;;;;;;;8.10;5.68;;;4.00;99.90;;;;;;5048435;28;20368;-45
2021/03/15 05:14:20;;;;;;;8.50;5.88;;;4.10;99.90;;;;;;5047909;28;20018;-46
2021/03/15 05:16:46;;;;;;;9.25;6.00;;;4.00;99.90;;;;;;5048251;28;20083;-46
2021/03/15 05:19:13;;;;;;;9.35;6.43;;;4.00;99.90;;;;;;5048162;28;20475;-45
2021/03/15 05:21:41;;;;;;;7.82;5.88;;;3.90;99.90;;;;;;5048033;28;20267;-46
2021/03/15 05:24:07;;;;;;;8.23;6.18;;;3.90;99.90;;;;;;5047708;28;20124;-48
2021/03/15 05:26:36;;;;;;;7.50;5.75;;;3.90;99.90;;;;;;5065398;28;20017;-46
2021/03/15 05:29:03;;;;;;;8.20;6.25;;;4.00;99.90;;;;;;5073602;28;20024;-45
2021/03/15 05:31:30;;;;;;;11.65;6.22;;;4.00;99.90;;;;;;5089038;28;20093;-45
2021/03/15 05:33:57;;;;;;;9.38;6.18;;;3.90;99.90;;;;;;5068666;28;20473;-45
2021/03/15 05:36:23;;;;;;;8.27;6.32;;;3.90;99.90;;;;;;5058270;28;20021;-46
2021/03/15 05:38:49;;;;;;;10.10;6.43;;;3.90;99.90;;;;;;5053629;28;20029;-45
2021/03/15 05:41:15;;;;;;;9.60;6.72;;;3.90;99.90;;;;;;5057712;28;20436;-46
2021/03/15 05:44:13;;;;;;;8.98;6.53;;;3.90;99.90;;;;;;5058127;28;20017;-46
2021/03/15 05:47:03;;;;;;;10.00;6.82;;;3.80;99.90;;;;;;5054999;28;20115;-46
2021/03/15 05:49:51;;;;;;;11.90;7.63;;;3.80;99.90;;;;;;5057232;28;20021;-46
2021/03/15 05:52:23;;;;;;;9.05;6.95;;;3.80;99.90;;;;;;5046019;28;20432;-48
2021/03/15 05:55:06;;;;;;;11.05;7.78;;;3.80;99.90;;;;;;5048190;28;20392;-45
2021/03/15 05:58:06;;;;;;;11.50;7.78;;;3.80;99.90;;;;;;5050417;28;20112;-45
2021/03/15 06:00:57;;;;;;;10.75;7.38;;;3.80;99.90;;;;;;5048181;28;20104;-45
2021/03/15 06:04:01;;;;;;;11.57;8.15;;;3.80;99.90;;;;;;5049214;28;20032;-49
2021/03/15 06:06:35;;;;;;;13.70;7.82;;;3.70;99.90;;;;;;5065019;28;20029;-46
2021/03/15 06:09:02;;;;;;;11.65;7.43;;;3.70;99.90;;;;;;5062886;28;20025;-47
2021/03/15 06:11:36;;;;;;;11.60;8.52;;;3.70;99.90;;;;;;5054835;28;20312;-46
2021/03/15 06:14:02;;;;;;;12.13;8.60;;;3.70;99.90;;;;;;5048981;28;20028;-46
2021/03/15 06:16:28;;;;;;;15.40;9.70;;;3.70;99.90;;;;;;5059141;28;20028;-47
2021/03/15 06:18:59;;;;;;;14.20;9.23;;;3.70;99.90;;;;;;5049884;28;20024;-46
2021/03/15 06:21:25;;;;;;;13.35;9.00;;;3.70;99.90;;;;;;5050554;28;20032;-46
2021/03/15 06:23:51;;;;;;;14.25;9.77;;;3.80;99.90;;;;;;5045662;28;20036;-48
2021/03/15 06:26:17;;;;;;;12.90;9.55;;;3.70;99.90;;;;;;5055832;28;20162;-49
2021/03/15 06:28:44;;;;;;;14.60;9.80;;;3.70;99.90;;;;;;5064869;28;20032;-49
2021/03/15 06:31:11;;;;;;;14.23;9.52;;;3.70;99.90;;;;;;5047839;28;20040;-47
2021/03/15 06:33:38;;;;;;;14.95;9.85;;;3.70;99.90;;;;;;5047196;28;20051;-46
2021/03/15 06:36:05;;;;;;;15.85;10.15;;;3.70;99.90;;;;;;5045380;28;20486;-46
2021/03/15 06:38:32;;;;;;;16.08;9.77;;;3.70;99.90;;;;;;5052236;28;20025;-48
2021/03/15 06:41:04;;;;;;;15.13;10.57;;;3.70;99.90;;;;;;5060437;28;20496;-45
2021/03/15 06:43:30;;;;;;;15.45;9.65;;;3.70;99.90;;;;;;5061728;28;20029;-46
2021/03/15 06:45:57;;;;;;;15.32;9.88;;;3.80;99.90;;;;;;5046305;28;20312;-46
2021/03/15 06:48:23;;;;;;;17.98;10.90;;;3.90;99.90;;;;;;5057755;28;20025;-45
2021/03/15 06:50:50;;;;;;;18.23;11.25;;;3.90;99.90;;;;;;5045504;28;20053;-46
2021/03/15 06:53:16;;;;;;;15.70;10.40;;;3.90;99.90;;;;;;5046025;28;20025;-46
2021/03/15 06:55:41;;;;;;;16.88;10.98;;;4.00;99.90;;;;;;5046395;28;20025;-46
2021/03/15 06:58:27;;;;;;;17.35;9.90;;;4.00;99.90;;;;;;5048296;28;21164;-47
2021/03/15 07:01:13;;;;;;;14.43;9.95;;;4.00;99.90;;;;;;5066288;28;20021;-47
2021/03/15 07:03:39;;;;;;;17.00;10.77;;;4.00;99.90;;;;;;5069221;28;20021;-46
2021/03/15 07:06:05;;;;;;;15.60;9.90;;;4.00;99.90;;;;;;5061305;28;20028;-46
2021/03/15 07:08:31;;;;;;;16.95;11.60;;;3.90;99.90;;;;;;5067571;28;20052;-46
2021/03/15 07:10:57;;;;;;;15.40;10.40;;;4.00;99.90;;;;;;5062436;28;20230;-45
2021/03/15 07:13:24;;;;;;;15.48;10.48;;;4.00;99.90;;;;;;5069714;28;20103;-46
2021/03/15 07:15:52;;;;;;;14.10;9.70;;;4.00;99.90;;;;;;5075822;28;20020;-47
2021/03/15 07:18:23;;;;;;;16.40;10.55;;;4.10;99.90;;;;;;5065080;28;20028;-46
2021/03/15 07:20:50;;;;;;;14.00;9.68;;;4.20;99.90;;;;;;5056994;28;20123;-47
2021/03/15 07:23:43;;;;;;;15.75;9.85;;;4.10;99.90;;;;;;5052729;28;20078;-46
2021/03/15 07:26:34;;;;;;;19.38;10.40;;;4.20;99.90;;;;;;5054012;28;20037;-47
2021/03/15 07:29:09;;;;;;;15.40;9.73;;;4.20;99.90;;;;;;5062396;28;20493;-46
2021/03/15 07:31:35;;;;;;;15.10;9.55;;;4.30;99.90;;;;;;5057865;28;20036;-46
2021/03/15 07:34:00;;;;;;;15.52;10.05;;;4.30;99.90;;;;;;5055068;28;20028;-46
2021/03/15 07:36:27;;;;;;;15.32;9.60;;;4.30;99.90;;;;;;5057766;28;20079;-46
2021/03/15 07:38:54;;;;;;;14.63;9.85;;;4.30;99.90;;;;;;5055248;28;20039;-46
2021/03/15 07:41:21;;;;;;;15.68;9.82;;;4.30;99.90;;;;;;5058428;28;20037;-47
2021/03/15 07:43:48;;;;;;;13.82;9.32;;;4.30;99.90;;;;;;5061817;28;20031;-46
2021/03/15 07:46:24;;;;;;;14.90;9.80;;;4.30;99.90;;;;;;5059911;28;20028;-46
2021/03/15 07:48:51;;;;;;;14.13;9.65;;;4.30;99.90;;;;;;5054167;28;20093;-46
2021/03/15 07:51:28;;;;;;;13.02;8.73;;;4.30;99.90;;;;;;5058393;28;20539;-47
2021/03/15 07:54:04;;;;;;;14.00;8.52;;;4.30;99.90;;;;;;5058268;28;20124;-47
2021/03/15 07:56:30;;;;;;;13.15;8.85;;;4.40;99.90;;;;;;5069628;28;20116;-47
2021/03/15 07:58:56;;;;;;;10.40;7.65;;;4.50;99.90;;;;;;5053879;28;20105;-46
2021/03/15 08:01:24;;;;;;;9.27;6.40;;;4.50;99.90;;;;;;5051091;28;20559;-46
2021/03/15 08:03:50;;;;;;;8.45;6.15;;;4.50;99.90;;;;;;5059664;28;20085;-45
2021/03/15 08:06:16;;;;;;;6.78;5.10;;;4.60;99.90;;;;;;5055715;28;20116;-46
2021/03/15 08:08:41;;;;;;;7.95;5.10;;;4.70;99.90;;;;;;5060597;28;20033;-45
2021/03/15 08:11:11;;;;;;;11.63;5.78;;;4.70;99.90;;;;;;5069120;28;20050;-46
2021/03/15 08:13:44;;;;;;;9.02;6.55;;;4.70;99.90;;;;;;5056619;28;20544;-45
2021/03/15 08:16:13;;;;;;;8.48;5.63;;;4.80;99.90;;;;;;5046575;28;20310;-47
2021/03/15 08:18:41;;;;;;;9.32;4.85;;;4.80;99.90;;;;;;5048705;28;20021;-45
2021/03/15 08:21:26;;;;;;;6.78;5.05;;;4.80;99.90;;;;;;5050346;28;20116;-46
2021/03/15 08:23:52;;;;;;;8.18;5.13;;;4.80;99.90;;;;;;5047506;28;20021;-45
2021/03/15 08:26:19;;;;;;;8.80;5.20;;;4.80;99.90;;;;;;5050760;28;20486;-45
2021/03/15 08:28:46;;;;;;;5.90;4.63;;;4.80;99.90;;;;;;5066621;28;20059;-46
2021/03/15 08:31:26;;;;;;;6.72;4.47;;;4.80;99.90;;;;;;5053071;28;20036;-45
2021/03/15 08:33:53;;;;;;;6.47;4.88;;;4.80;99.90;;;;;;5051801;28;20087;-47
2021/03/15 08:36:19;;;;;;;8.30;4.30;;;4.90;99.90;;;;;;5053837;28;20021;-45
2021/03/15 08:38:45;;;;;;;6.03;4.15;;;5.00;99.90;;;;;;5058723;28;20033;-46
2021/03/15 08:41:11;;;;;;;10.73;5.18;;;5.10;99.90;;;;;;5054827;28;20438;-45
2021/03/15 08:43:46;;;;;;;6.18;3.55;;;5.40;99.90;;;;;;5056415;28;20028;-46
2021/03/15 08:46:36;;;;;;;5.72;3.88;;;5.50;99.90;;;;;;5057877;28;20017;-45
2021/03/15 08:49:07;;;;;;;7.28;3.33;;;5.60;99.90;;;;;;5046530;28;20040;-46
2021/03/15 08:51:33;;;;;;;8.85;3.38;;;5.60;99.90;;;;;;5056750;28;20077;-46
2021/03/15 08:54:06;;;;;;;5.40;3.45;;;5.70;99.90;;;;;;5052145;28;20124;-45
2021/03/15 08:56:31;;;;;;;11.68;5.15;;;5.60;99.90;;;;;;5056106;28;20102;-46
2021/03/15 08:58:58;;;;;;;8.32;3.58;;;5.60;99.90;;;;;;5055971;28;20029;-46
2021/03/15 09:01:46;;;;;;;5.82;3.13;;;5.70;99.90;;;;;;5058102;28;20028;-47
2021/03/15 09:04:40;;;;;;;7.43;3.35;;;5.80;99.90;;;;;;5056596;28;20025;-47
2021/03/15 09:07:45;;;;;;;7.35;3.20;;;5.90;99.90;;;;;;5056397;28;20111;-46
2021/03/15 09:10:23;;;;;;;5.57;3.35;;;6.00;99.90;;;;;;5054943;28;20516;-46
2021/03/15 09:13:10;;;;;;;7.38;3.47;;;6.20;99.90;;;;;;5055293;28;20040;-47
2021/03/15 09:15:37;;;;;;;8.55;3.20;;;6.40;99.90;;;;;;5057925;28;20052;-46
2021/03/15 09:18:41;;;;;;;7.93;3.95;;;6.50;99.90;;;;;;5057182;28;20437;-46
2021/03/15 09:21:28;;;;;;;8.85;3.67;;;6.50;99.90;;;;;;5054775;28;20028;-47
2021/03/15 09:24:01;;;;;;;9.45;3.92;;;6.60;99.90;;;;;;5056115;28;20062;-48
2021/03/15 09:26:29;;;;;;;7.20;4.10;;;6.60;99.90;;;;;;5056629;28;20074;-46
2021/03/15 09:28:56;;;;;;;9.98;4.57;;;6.60;99.90;;;;;;5055515;28;20033;-47
2021/03/15 09:31:24;;;;;;;7.65;4.43;;;6.70;99.90;;;;;;5057098;28;20120;-49
2021/03/15 09:33:50;;;;;;;7.95;5.25;;;7.20;99.90;;;;;;5057491;28;20031;-46
2021/03/15 09:36:30;;;;;;;10.40;5.53;;;7.60;99.90;;;;;;5053835;28;20414;-46
2021/03/15 09:38:57;;;;;;;7.10;4.30;;;7.60;99.90;;;;;;5056721;28;20332;-46
2021/03/15 09:41:24;;;;;;;11.40;5.95;;;7.70;99.90;;;;;;5056716;28;20051;-50
2021/03/15 09:43:50;;;;;;;8.52;5.28;;;7.70;99.90;;;;;;5056983;28;20020;-46
2021/03/15 09:46:24;;;;;;;12.75;6.13;;;7.50;99.90;;;;;;5059136;28;20064;-48
2021/03/15 09:48:51;;;;;;;15.10;6.25;;;7.70;99.90;;;;;;5052912;28;20617;-46
2021/03/15 09:51:25;;;;;;;18.30;6.97;;;7.60;99.90;;;;;;5059139;28;20047;-48
2021/03/15 09:53:50;;;;;;;12.23;6.78;;;7.40;99.90;;;;;;5056064;28;20025;-48
2021/03/15 09:56:16;;;;;;;12.52;7.25;;;7.50;99.90;;;;;;5054913;28;20021;-46
2021/03/15 09:58:42;;;;;;;15.65;7.47;;;7.30;99.90;;;;;;5055144;28;20027;-47
2021/03/15 10:01:16;;;;;;;14.20;6.82;;;7.20;99.90;;;;;;5056442;28;20031;-47
2021/03/15 10:03:50;;;;;;;10.80;5.82;;;7.10;99.90;;;;;;5057370;28;20135;-49
2021/03/15 10:06:19;;;;;;;8.75;5.68;;;7.20;99.90;;;;;;5055384;28;20405;-46
2021/03/15 10:08:49;;;;;;;13.70;5.65;;;7.30;99.90;;;;;;5056716;28;20027;-45
2021/03/15 10:11:18;;;;;;;12.40;5.55;;;7.10;99.90;;;;;;5059549;28;20021;-46
2021/03/15 10:13:56;;;;;;;10.88;5.38;;;7.20;99.90;;;;;;5056537;28;20040;-47
2021/03/15 10:16:21;;;;;;;13.07;6.05;;;7.10;99.90;;;;;;5055351;28;20021;-46
2021/03/15 10:18:49;;;;;;;13.15;5.80;;;7.00;99.90;;;;;;5052843;28;20263;-45
2021/03/15 10:21:24;;;;;;;16.27;6.00;;;7.00;99.90;;;;;;5057557;28;20031;-47
2021/03/15 10:23:49;;;;;;;7.82;5.43;;;7.00;99.90;;;;;;5058334;28;20021;-46
2021/03/15 10:26:16;;;;;;;10.23;4.28;;;7.20;99.90;;;;;;5051965;28;20021;-46
2021/03/15 10:28:46;;;;;;;11.30;4.40;;;7.30;99.90;;;;;;5061733;28;20454;-46
2021/03/15 10:31:12;;;;;;;11.95;4.00;;;7.50;99.90;;;;;;5049218;28;20438;-47
2021/03/15 10:33:44;;;;;;;11.85;4.50;;;7.50;99.90;;;;;;5050649;28;20017;-46
2021/03/15 10:36:10;;;;;;;13.63;4.47;;;7.60;99.90;;;;;;5059510;28;20098;-47
2021/03/15 10:38:37;;;;;;;15.30;4.88;;;7.60;99.90;;;;;;5060665;28;20091;-47
2021/03/15 10:41:03;;;;;;;10.73;4.35;;;7.50;99.90;;;;;;5055455;28;20098;-46
2021/03/15 10:43:29;;;;;;;11.30;4.72;;;7.40;99.90;;;;;;5057172;28;20024;-47
2021/03/15 10:45:54;;;;;;;11.30;4.35;;;7.30;99.90;;;;;;5058496;28;20041;-48
2021/03/15 10:48:25;;;;;;;16.42;4.50;;;7.30;99.90;;;;;;5061234;28;20096;-46
2021/03/15 10:50:55;;;;;;;13.38;4.32;;;7.30;99.90;;;;;;5057557;28;20028;-49
2021/03/15 10:53:22;;;;;;;12.20;5.53;;;7.30;99.90;;;;;;5061615;28;20029;-49
2021/03/15 10:55:49;;;;;;;10.43;5.43;;;7.20;99.90;;;;;;5059812;28;20051;-47
2021/03/15 10:58:16;;;;;;;9.63;4.38;;;7.30;99.90;;;;;;5058697;28;20037;-49
2021/03/15 11:00:46;;;;;;;13.20;4.65;;;7.30;99.90;;;;;;5058333;28;20032;-47
2021/03/15 11:03:23;;;;;;;7.30;4.45;;;7.20;99.90;;;;;;5059443;28;20449;-46
2021/03/15 11:06:14;;;;;;;11.18;4.50;;;7.20;99.90;;;;;;5059763;28;20033;-46
2021/03/15 11:08:40;;;;;;;14.98;4.78;;;7.20;99.90;;;;;;5055322;28;20128;-46
2021/03/15 11:11:14;;;;;;;12.57;5.43;;;7.30;99.90;;;;;;5060740;28;20415;-49
2021/03/15 11:13:44;;;;;;;11.30;4.25;;;7.30;99.90;;;;;;5057322;28;20013;-46
2021/03/15 11:16:30;;;;;;;13.45;5.43;;;7.20;99.90;;;;;;5059006;28;20268;-47
2021/03/15 11:19:04;;;;;;;16.25;6.20;;;7.20;99.90;;;;;;5054916;28;20013;-49
2021/03/15 11:21:37;;;;;;;19.05;5.75;;;7.10;99.90;;;;;;5056921;28;20091;-46
2021/03/15 11:24:04;;;;;;;14.95;5.55;;;7.10;99.90;;;;;;5063725;28;20078;-50
2021/03/15 11:26:52;;;;;;;12.10;6.03;;;7.10;99.90;;;;;;5065029;28;20428;-48
2021/03/15 11:29:21;;;;;;;17.13;7.00;;;7.20;99.90;;;;;;5055770;28;20025;-46
2021/03/15 11:31:53;;;;;;;11.77;6.28;;;7.30;99.90;;;;;;5058402;28;20732;-47
2021/03/15 11:34:24;;;;;;;13.15;5.85;;;7.40;99.90;;;;;;5057065;28;20016;-50
2021/03/15 11:36:52;;;;;;;10.27;4.18;;;8.10;99.90;;;;;;5055169;28;20029;-49
2021/03/15 11:39:18;;;;;;;10.85;4.43;;;8.60;99.90;;;;;;5054545;28;20143;-47
2021/03/15 11:41:45;;;;;;;9.25;3.80;;;8.90;99.90;;;;;;5060525;28;20051;-46
2021/03/15 11:44:11;;;;;;;7.22;4.00;;;9.10;99.90;;;;;;5052529;28;20116;-47
2021/03/15 11:46:36;;;;;;;5.65;3.17;;;9.40;99.90;;;;;;5054186;28;20108;-47
2021/03/15 11:49:02;;;;;;;9.68;3.15;;;9.30;99.90;;;;;;5057332;28;20029;-47
2021/03/15 11:51:28;;;;;;;9.48;4.53;;;9.20;99.90;;;;;;5055865;28;20525;-50
2021/03/15 11:53:53;;;;;;;7.22;4.18;;;8.70;99.90;;;;;;5052774;28;20029;-46
2021/03/15 11:56:20;;;;;;;6.65;4.00;;;9.10;99.90;;;;;;5057614;28;20020;-47
2021/03/15 11:58:46;;;;;;;13.80;3.92;;;9.30;99.90;;;;;;5056254;28;20032;-46
2021/03/15 12:01:12;;;;;;;6.97;3.60;;;9.50;99.90;;;;;;5056846;28;20702;-49
2021/03/15 12:03:38;;;;;;;9.85;3.42;;;9.60;99.90;;;;;;5056712;28;20021;-46
2021/03/15 12:06:08;;;;;;;11.15;4.57;;;9.30;99.90;;;;;;5055425;28;20021;-49
2021/03/15 12:08:34;;;;;;;9.57;4.15;;;8.80;99.90;;;;;;5055501;28;20060;-53
2021/03/15 12:10:59;;;;;;;8.98;3.45;;;8.80;99.90;;;;;;5057032;28;20117;-47
2021/03/15 12:13:25;;;;;;;12.98;3.55;;;8.60;99.90;;;;;;5054404;28;20041;-47
2021/03/15 12:15:52;;;;;;;9.85;4.40;;;8.60;99.90;;;;;;5052047;28;20083;-46
2021/03/15 12:18:18;;;;;;;7.47;3.30;;;8.70;99.90;;;;;;5050837;28;20033;-47
2021/03/15 12:20:44;;;;;;;8.98;3.10;;;9.40;99.90;;;;;;5052423;28;20292;-48
2021/03/15 12:23:10;;;;;;;9.93;3.28;;;9.40;99.90;;;;;;5048563;28;20056;-50
2021/03/15 12:25:37;;;;;;;6.47;2.85;;;9.20;99.90;;;;;;5058980;28;20025;-47
2021/03/15 12:28:03;;;;;;;18.00;2.92;;;8.90;99.90;;;;;;5063084;28;20040;-49
2021/03/15 12:30:29;;;;;;;7.78;2.35;;;8.60;99.90;;;;;;5047847;28;20086;-46
2021/03/15 12:32:55;;;;;;;5.28;2.20;;;8.60;99.90;;;;;;5049661;28;20040;-47
2021/03/15 12:35:22;;;;;;;6.15;1.50;;;9.90;99.90;;;;;;5047932;28;20021;-47
2021/03/15 12:37:48;;;;;;;5.53;1.40;;;10.90;99.90;;;;;;5049327;28;20505;-48
2021/03/15 12:40:15;;;;;;;9.55;1.90;;;11.50;99.90;;;;;;5053375;28;20072;-48
2021/03/15 12:42:40;;;;;;;7.88;2.08;;;12.20;99.90;;;;;;5063191;28;20037;-47
2021/03/15 12:45:07;;;;;;;6.07;1.70;;;12.40;99.90;;;;;;5053569;28;20031;-47
2021/03/15 12:47:33;;;;;;;5.32;1.45;;;12.40;99.90;;;;;;5058721;28;20021;-46
2021/03/15 12:49:59;;;;;;;4.80;1.73;;;12.80;99.90;;;;;;5057433;28;20040;-49
2021/03/15 12:52:24;;;;;;;8.88;2.53;;;12.90;99.90;;;;;;5052884;28;20028;-49
2021/03/15 12:54:50;;;;;;;3.33;1.50;;;12.60;99.90;;;;;;5065041;28;20093;-47
2021/03/15 12:57:15;;;;;;;13.27;2.03;;;12.70;99.90;;;;;;5055392;28;20615;-50
2021/03/15 12:59:41;;;;;;;3.83;1.55;;;13.10;99.90;;;;;;5055044;28;20043;-47
2021/03/15 13:02:06;;;;;;;4.93;1.35;;;12.70;99.80;;;;;;5057208;28;20517;-46